Pagina principale
METAR-TAF:

METAR-TAF

Aeroporti :

Aeroporto di Girona

Girona, Spagna

latitudine: 41-54N, longitudine: 002-46E, altezza: 143 m

Osservazione

Il bollettino è stato emesso 12 minuti fa, alle 17:30 UTC
Vento 13 kt da sud
Temperature 21°C
Umidità 64%
Pressione 1013 hPa
Visibilità 10 km o più
Nubi sparse ad un'altezza di 4500 ft

METAR: LEGE 311730Z 18013KT 9999 SCT045 21/14 Q1013

Ora: 19:42 (17:42 UTC)

Previsione

Il bollettino è stato emesso 42 minuti fa, alle 17:00 UTC
Previsione valida dal 31 alle 18 UTC al 01 alle 18 UTC
Vento 15 kt da sud
Visibilità 10 km o più
Nubi sparse ad un'altezza di 2500 ft
Evoluzione graduale
dal 31 alle 20 UTC al 31 alle 22 UTC
Vento 5 kt da sud
Evoluzione graduale
dal 01 alle 06 UTC al 01 alle 08 UTC
Vento 10 kt da sud

TAF: LEGE 311700Z 3118/0118 18015KT 9999 SCT025 TX25/0112Z TN16/0106Z BECMG 3120/3122 18005KT BECMG 0106/0108 18010KT

Osservazioni e previsioni meteorologiche di più di 4000 aeroporti (messaggi METAR e TAF).

Le stazioni disponibili sono rappresentate dai dischi gialli e rossi sulla carta.

Puntare il mouse per vedere il nome della stazione.

Clicca sopra per visualizzare le osservazioni e previsioni meteorologiche.

Per cambiare la mappa : fare clic sui pulsanti verdi con una croce nera per ingrandire, il pulsante verde con un trattino per diminuire, o sulla freccia verde per le mappe adiacenti.


METAR-TAF: